Time;durP1;ratioP1;P1;durP2;ratioP2;P2;SDS_P1;SDS_P2;PMS_P1;PMS_P2;Temp;Humidity;BMP_temperature;BMP_pressure;BME280_temperature;BME280_humidity;BME280_pressure;Samples;Min_cycle;Max_cycle;Signal;HPM_P1;HPM_P2
2022/01/31 00:00:50;;;;;;;14.15;5.18;;;1.90;99.90;;;;;;5070696;28;20387;-55
2022/01/31 00:03:15;;;;;;;13.93;5.25;;;1.90;99.90;;;;;;5070534;28;20391;-54
2022/01/31 00:05:41;;;;;;;14.05;5.80;;;2.00;99.90;;;;;;5071349;28;20379;-54
2022/01/31 00:08:07;;;;;;;18.37;6.07;;;2.00;99.90;;;;;;5069936;28;20487;-54
2022/01/31 00:10:33;;;;;;;13.70;5.80;;;2.00;99.90;;;;;;5069693;28;20804;-54
2022/01/31 00:13:12;;;;;;;16.35;5.93;;;2.00;99.90;;;;;;5070026;28;20876;-55
2022/01/31 00:15:41;;;;;;;15.60;6.97;;;2.00;99.90;;;;;;5070960;28;20510;-55
2022/01/31 00:18:07;;;;;;;14.65;5.40;;;3.30;99.90;;;;;;5069984;28;20415;-55
2022/01/31 00:20:33;;;;;;;14.32;5.55;;;2.10;99.90;;;;;;5070832;28;20380;-54
2022/01/31 00:22:58;;;;;;;14.63;5.50;;;2.10;99.90;;;;;;5069756;28;20394;-55
2022/01/31 00:25:24;;;;;;;15.02;5.50;;;2.00;99.90;;;;;;5069475;28;20375;-55
2022/01/31 00:27:50;;;;;;;12.60;5.80;;;2.00;99.90;;;;;;5102831;28;20424;-56
2022/01/31 00:30:17;;;;;;;14.40;5.17;;;2.90;99.90;;;;;;5070014;28;20380;-55
2022/01/31 00:32:43;;;;;;;17.02;6.03;;;1.70;99.90;;;;;;5103064;28;20396;-55
2022/01/31 00:35:09;;;;;;;14.40;5.60;;;2.10;99.90;;;;;;5069831;28;20407;-54
2022/01/31 00:37:35;;;;;;;16.10;5.57;;;2.20;99.90;;;;;;5070062;28;20380;-54
2022/01/31 00:40:01;;;;;;;13.20;5.37;;;2.10;99.90;;;;;;5069533;28;20868;-55
2022/01/31 00:42:29;;;;;;;13.75;5.95;;;3.20;99.90;;;;;;5070431;28;20372;-54
2022/01/31 00:44:59;;;;;;;18.02;5.70;;;2.40;99.90;;;;;;5069351;28;20376;-55
2022/01/31 00:47:27;;;;;;;12.57;4.93;;;2.30;99.90;;;;;;5102701;28;20392;-55
2022/01/31 00:50:10;;;;;;;16.30;5.45;;;2.30;99.90;;;;;;5070097;28;20383;-56
2022/01/31 00:52:38;;;;;;;10.70;4.85;;;2.30;99.90;;;;;;5068961;28;20380;-54
2022/01/31 00:55:06;;;;;;;13.40;6.25;;;2.40;99.90;;;;;;5069165;28;20877;-55
2022/01/31 00:57:32;;;;;;;18.67;5.80;;;2.30;99.90;;;;;;5070087;28;20384;-54
2022/01/31 00:59:57;;;;;;;15.35;6.25;;;2.40;99.90;;;;;;5069181;28;20853;-55
2022/01/31 01:02:24;;;;;;;12.43;5.40;;;2.40;99.90;;;;;;5069703;28;20410;-54
2022/01/31 01:04:51;;;;;;;16.80;5.70;;;2.60;99.90;;;;;;5102378;28;20702;-55
2022/01/31 01:07:19;;;;;;;14.82;5.40;;;2.60;99.90;;;;;;5069017;28;20441;-55
2022/01/31 01:09:45;;;;;;;16.35;5.35;;;2.60;99.90;;;;;;5068852;28;20388;-54
2022/01/31 01:12:13;;;;;;;20.30;5.78;;;2.50;99.90;;;;;;5067702;28;21045;-54
2022/01/31 01:14:40;;;;;;;13.13;6.10;;;2.30;99.90;;;;;;5068970;28;20439;-55
2022/01/31 01:17:06;;;;;;;13.55;5.30;;;4.00;99.90;;;;;;5068695;28;20491;-54
2022/01/31 01:19:32;;;;;;;16.57;5.80;;;3.10;99.90;;;;;;5069607;28;20395;-55
2022/01/31 01:21:58;;;;;;;17.13;6.00;;;2.40;99.90;;;;;;5068929;28;20444;-55
2022/01/31 01:24:24;;;;;;;17.45;6.35;;;2.90;99.90;;;;;;5094371;28;20384;-52
2022/01/31 01:26:49;;;;;;;16.48;6.13;;;3.70;99.90;;;;;;5084302;28;20398;-52
2022/01/31 01:29:16;;;;;;;17.13;6.03;;;2.10;99.90;;;;;;5070322;28;20394;-53
2022/01/31 01:31:44;;;;;;;15.75;6.07;;;2.10;99.90;;;;;;5088221;28;20428;-52
2022/01/31 01:34:10;;;;;;;14.07;5.60;;;2.20;99.90;;;;;;5082574;28;20419;-55
2022/01/31 01:36:38;;;;;;;15.30;6.88;;;2.30;99.90;;;;;;5069600;28;20395;-56
2022/01/31 01:39:04;;;;;;;15.02;6.15;;;2.30;99.90;;;;;;5101369;28;20854;-56
2022/01/31 01:41:30;;;;;;;18.50;6.00;;;3.40;99.90;;;;;;5069541;28;20383;-54
2022/01/31 01:43:56;;;;;;;16.88;6.45;;;2.40;99.90;;;;;;5068935;28;20508;-56
2022/01/31 01:46:21;;;;;;;14.13;6.90;;;2.40;99.90;;;;;;5069851;28;20524;-55
2022/01/31 01:48:47;;;;;;;17.53;5.87;;;2.50;99.90;;;;;;5069170;28;20422;-54
2022/01/31 01:51:13;;;;;;;14.55;4.80;;;2.80;99.90;;;;;;5068585;28;20386;-55
2022/01/31 01:53:39;;;;;;;14.80;4.70;;;4.40;99.90;;;;;;5069200;28;20403;-55
2022/01/31 01:56:05;;;;;;;13.18;5.18;;;2.60;99.90;;;;;;5068808;28;20868;-55
2022/01/31 01:58:38;;;;;;;12.10;5.10;;;2.60;99.90;;;;;;5069152;28;20749;-55
2022/01/31 02:01:04;;;;;;;13.02;5.53;;;2.60;99.90;;;;;;5068487;28;20849;-55
2022/01/31 02:03:32;;;;;;;18.45;5.00;;;2.60;99.90;;;;;;5069224;28;20544;-55
2022/01/31 02:05:58;;;;;;;13.80;5.03;;;4.00;99.90;;;;;;5068226;28;20388;-55
2022/01/31 02:08:25;;;;;;;12.60;5.47;;;2.60;99.90;;;;;;5068906;28;20872;-55
2022/01/31 02:10:51;;;;;;;10.75;4.43;;;2.70;99.90;;;;;;5069010;28;20391;-55
2022/01/31 02:13:18;;;;;;;17.80;4.97;;;4.10;99.90;;;;;;5068318;28;20757;-55
2022/01/31 02:15:50;;;;;;;16.40;5.97;;;2.60;99.90;;;;;;5068873;28;20388;-54
2022/01/31 02:18:17;;;;;;;15.80;5.20;;;2.60;99.90;;;;;;5067810;28;20500;-55
2022/01/31 02:20:42;;;;;;;13.18;4.90;;;3.50;99.90;;;;;;5067692;28;20388;-55
2022/01/31 02:23:10;;;;;;;14.18;4.60;;;4.20;99.90;;;;;;5068352;28;20394;-55
2022/01/31 02:26:01;;;;;;;13.32;4.40;;;2.70;99.90;;;;;;5070053;28;20416;-55
2022/01/31 02:28:28;;;;;;;15.88;4.93;;;2.80;99.90;;;;;;5072823;28;20849;-54
2022/01/31 02:30:55;;;;;;;16.20;5.05;;;2.80;99.90;;;;;;5072306;28;20849;-55
2022/01/31 02:33:21;;;;;;;10.77;3.95;;;4.50;99.90;;;;;;5087794;28;20443;-55
2022/01/31 02:35:53;;;;;;;15.85;5.13;;;2.90;99.90;;;;;;5072735;28;20368;-55
2022/01/31 02:38:19;;;;;;;12.35;4.70;;;3.00;99.90;;;;;;5072046;28;20384;-54
2022/01/31 02:40:45;;;;;;;13.57;4.50;;;3.00;99.90;;;;;;5071362;28;20476;-55
2022/01/31 02:43:17;;;;;;;11.85;4.63;;;3.00;99.90;;;;;;5071557;28;20459;-54
2022/01/31 02:45:43;;;;;;;14.38;5.13;;;2.90;99.90;;;;;;5072204;28;20387;-54
2022/01/31 02:48:08;;;;;;;16.83;5.13;;;2.90;99.90;;;;;;5071528;28;20388;-54
2022/01/31 02:50:34;;;;;;;14.25;5.00;;;2.90;99.90;;;;;;5072365;28;20891;-55
2022/01/31 02:53:11;;;;;;;15.05;5.00;;;2.70;99.90;;;;;;5071032;28;20380;-55
2022/01/31 02:55:39;;;;;;;13.80;4.60;;;2.90;99.90;;;;;;5072329;28;20456;-55
2022/01/31 02:58:05;;;;;;;9.20;4.63;;;2.80;99.90;;;;;;5071350;28;20372;-55
2022/01/31 03:00:31;;;;;;;13.65;4.80;;;2.60;99.90;;;;;;5072234;28;20392;-55
2022/01/31 03:02:57;;;;;;;16.30;4.97;;;2.60;99.90;;;;;;5071605;28;20880;-56
2022/01/31 03:05:23;;;;;;;15.70;4.97;;;2.70;99.90;;;;;;5071923;28;20384;-55
2022/01/31 03:07:48;;;;;;;14.10;5.30;;;2.70;99.90;;;;;;5104672;28;20414;-54
2022/01/31 03:10:14;;;;;;;13.47;4.67;;;4.10;99.90;;;;;;5071196;28;20409;-55
2022/01/31 03:12:39;;;;;;;14.30;5.10;;;3.80;99.90;;;;;;5104592;28;20479;-55
2022/01/31 03:15:05;;;;;;;12.52;4.78;;;2.70;99.90;;;;;;5072247;28;20437;-55
2022/01/31 03:17:31;;;;;;;17.90;5.25;;;2.70;99.90;;;;;;5082775;28;20403;-55
2022/01/31 03:19:56;;;;;;;14.07;4.60;;;4.00;99.90;;;;;;5080668;28;20378;-55
2022/01/31 03:22:24;;;;;;;10.85;4.20;;;2.60;99.90;;;;;;5071532;28;20396;-55
2022/01/31 03:24:49;;;;;;;9.65;4.40;;;2.70;99.90;;;;;;5091822;28;20386;-56
2022/01/31 03:27:15;;;;;;;14.60;4.40;;;2.70;99.90;;;;;;5091017;28;20430;-55
2022/01/31 03:29:42;;;;;;;11.77;4.43;;;2.70;99.90;;;;;;5091639;28;20382;-54
2022/01/31 03:32:08;;;;;;;11.85;4.15;;;2.70;99.90;;;;;;5090681;28;20374;-54
2022/01/31 03:34:33;;;;;;;12.55;4.60;;;2.80;99.90;;;;;;5091341;28;20997;-55
2022/01/31 03:36:59;;;;;;;13.87;4.60;;;2.90;99.90;;;;;;5090467;28;20378;-55
2022/01/31 03:39:25;;;;;;;16.40;4.50;;;4.10;99.90;;;;;;5091630;28;20382;-54
2022/01/31 03:41:51;;;;;;;12.52;4.38;;;3.00;99.90;;;;;;5091559;28;20378;-55
2022/01/31 03:44:17;;;;;;;11.95;4.00;;;3.10;99.90;;;;;;5090893;28;20382;-54
2022/01/31 03:46:42;;;;;;;14.00;4.93;;;3.30;99.90;;;;;;5091652;28;20451;-54
2022/01/31 03:49:08;;;;;;;10.57;4.20;;;3.30;99.90;;;;;;5089463;28;20441;-55
2022/01/31 03:51:34;;;;;;;15.13;4.25;;;4.40;99.90;;;;;;5091376;28;20385;-55
2022/01/31 03:54:00;;;;;;;15.18;4.28;;;3.40;99.90;;;;;;5090244;28;20405;-55
2022/01/31 03:56:26;;;;;;;11.80;4.80;;;4.20;99.90;;;;;;5091477;28;20385;-54
2022/01/31 03:58:51;;;;;;;14.10;4.30;;;4.60;99.90;;;;;;5089843;28;20382;-55
2022/01/31 04:01:18;;;;;;;14.35;4.60;;;3.50;99.90;;;;;;5090725;28;20382;-55
2022/01/31 04:03:45;;;;;;;12.20;4.07;;;3.50;99.90;;;;;;5089718;28;20385;-55
2022/01/31 04:06:10;;;;;;;9.00;3.35;;;3.60;99.90;;;;;;5090146;28;20434;-55
2022/01/31 04:08:36;;;;;;;14.03;4.40;;;3.50;99.90;;;;;;5089591;28;20378;-54
2022/01/31 04:11:02;;;;;;;11.30;3.65;;;3.60;99.90;;;;;;5090586;28;20774;-55
2022/01/31 04:13:27;;;;;;;16.53;4.63;;;5.20;99.90;;;;;;5090229;28;20409;-54
2022/01/31 04:15:53;;;;;;;11.02;3.72;;;3.50;99.90;;;;;;5090974;28;20895;-55
2022/01/31 04:18:19;;;;;;;12.97;3.87;;;3.50;99.90;;;;;;5088491;28;20398;-54
2022/01/31 04:20:44;;;;;;;12.90;4.00;;;3.60;99.90;;;;;;5090595;28;20388;-54
2022/01/31 04:23:13;;;;;;;14.52;4.95;;;3.60;99.90;;;;;;5089610;28;20378;-54
2022/01/31 04:25:46;;;;;;;13.98;4.50;;;3.60;99.90;;;;;;5089587;28;20378;-55
2022/01/31 04:33:24;;;;;;;14.02;3.50;;;3.50;99.90;;;;;;5090058;28;20413;-55
2022/01/31 04:35:50;;;;;;;11.00;4.10;;;3.40;99.90;;;;;;5089241;28;20428;-55
2022/01/31 04:38:17;;;;;;;11.07;4.10;;;3.60;99.90;;;;;;5089782;28;20704;-54
2022/01/31 04:40:42;;;;;;;9.80;4.05;;;3.60;99.90;;;;;;5090297;28;20386;-54
2022/01/31 04:43:08;;;;;;;9.03;3.20;;;3.60;99.90;;;;;;5089546;28;20457;-55
2022/01/31 04:45:34;;;;;;;13.93;3.80;;;3.70;99.90;;;;;;5090153;28;20419;-54
2022/01/31 04:48:00;;;;;;;9.68;3.67;;;3.70;99.90;;;;;;5089033;28;20499;-56
2022/01/31 04:50:25;;;;;;;10.70;3.40;;;3.70;99.90;;;;;;5089481;28;20901;-55
2022/01/31 04:52:51;;;;;;;13.60;4.57;;;3.70;99.90;;;;;;5089742;28;20389;-54
2022/01/31 04:55:17;;;;;;;12.48;3.80;;;5.00;99.90;;;;;;5093626;28;20400;-55
2022/01/31 04:57:42;;;;;;;11.00;4.10;;;3.80;99.90;;;;;;5110127;28;20810;-54
2022/01/31 05:00:09;;;;;;;10.90;3.40;;;3.80;99.90;;;;;;5100269;28;20382;-55
2022/01/31 05:02:36;;;;;;;14.18;4.22;;;3.90;99.90;;;;;;5101753;28;20388;-54
2022/01/31 05:05:03;;;;;;;14.15;3.92;;;3.80;99.90;;;;;;5088098;28;20394;-55
2022/01/31 05:07:29;;;;;;;12.10;3.70;;;3.80;99.90;;;;;;5089654;28;20378;-54
2022/01/31 05:09:55;;;;;;;12.63;2.70;;;3.80;99.90;;;;;;5093361;28;20525;-55
2022/01/31 05:12:21;;;;;;;7.43;2.40;;;4.00;99.90;;;;;;5100139;28;20935;-55
2022/01/31 05:14:46;;;;;;;11.80;2.50;;;4.20;99.90;;;;;;5104618;28;20421;-54
2022/01/31 05:17:12;;;;;;;12.20;2.87;;;4.50;99.90;;;;;;5090549;28;20405;-54
2022/01/31 05:19:37;;;;;;;10.18;2.40;;;4.70;99.90;;;;;;5092010;28;20427;-54
2022/01/31 05:22:03;;;;;;;9.80;2.40;;;4.80;99.90;;;;;;5093448;28;20938;-55
2022/01/31 05:24:29;;;;;;;7.65;2.28;;;5.00;99.90;;;;;;5091638;28;20382;-55
2022/01/31 05:26:55;;;;;;;11.38;2.80;;;5.00;99.90;;;;;;5089212;28;20405;-55
2022/01/31 05:29:22;;;;;;;7.40;2.35;;;5.00;99.90;;;;;;5090668;28;20366;-54
2022/01/31 05:31:48;;;;;;;9.55;2.63;;;3.80;99.90;;;;;;5086645;28;20397;-54
2022/01/31 05:34:15;;;;;;;8.52;2.70;;;5.10;99.90;;;;;;5086403;28;20446;-55
2022/01/31 05:36:41;;;;;;;8.82;2.58;;;5.20;99.90;;;;;;5088897;28;20386;-55
2022/01/31 05:39:07;;;;;;;10.70;3.30;;;5.20;99.90;;;;;;5085901;28;20374;-55
2022/01/31 05:41:33;;;;;;;9.55;2.90;;;5.30;99.90;;;;;;5088817;28;20389;-55
2022/01/31 05:43:58;;;;;;;13.18;3.05;;;5.20;99.90;;;;;;5091507;28;20386;-55
2022/01/31 05:46:24;;;;;;;10.73;2.97;;;5.20;99.90;;;;;;5091432;28;20432;-55
2022/01/31 05:48:51;;;;;;;12.45;3.00;;;5.90;99.90;;;;;;5092383;28;20447;-55
2022/01/31 05:51:19;;;;;;;11.77;3.60;;;5.30;99.90;;;;;;5097428;28;20381;-54
2022/01/31 05:53:46;;;;;;;10.65;2.50;;;5.30;99.90;;;;;;5094319;28;20445;-54
2022/01/31 05:56:15;;;;;;;7.90;2.70;;;5.20;99.90;;;;;;5105112;28;20372;-54
2022/01/31 05:58:42;;;;;;;10.02;2.88;;;5.90;99.90;;;;;;5095085;28;20459;-55
2022/01/31 06:01:08;;;;;;;11.15;2.90;;;5.30;99.90;;;;;;5099766;28;20426;-55
2022/01/31 06:03:33;;;;;;;7.30;2.70;;;6.70;99.90;;;;;;5106657;28;20783;-54
2022/01/31 06:06:00;;;;;;;10.45;2.70;;;5.30;99.90;;;;;;5096332;28;20382;-56
2022/01/31 06:08:25;;;;;;;10.90;3.10;;;5.30;99.90;;;;;;5109111;28;20385;-55
2022/01/31 06:10:51;;;;;;;10.63;3.10;;;5.30;99.90;;;;;;5100667;28;20387;-54
2022/01/31 06:13:23;;;;;;;12.52;2.85;;;5.60;99.90;;;;;;5093842;28;20409;-54
2022/01/31 06:15:49;;;;;;;9.20;2.90;;;5.30;99.90;;;;;;5105401;28;20392;-54
2022/01/31 06:18:15;;;;;;;8.50;3.10;;;5.30;99.90;;;;;;5089834;28;20442;-55
2022/01/31 06:20:41;;;;;;;9.60;3.23;;;5.30;99.90;;;;;;5092190;28;20416;-54
2022/01/31 06:23:07;;;;;;;11.70;3.47;;;5.40;99.90;;;;;;5100134;28;20577;-55
2022/01/31 06:25:34;;;;;;;11.10;3.42;;;5.30;99.90;;;;;;5101726;28;20382;-55
2022/01/31 06:28:00;;;;;;;11.48;3.33;;;5.50;99.90;;;;;;5092454;28;20469;-56
2022/01/31 06:30:28;;;;;;;8.10;3.30;;;6.00;99.90;;;;;;5098205;28;20502;-55
2022/01/31 06:32:54;;;;;;;10.35;3.40;;;5.60;99.90;;;;;;5105551;28;20744;-55
2022/01/31 06:35:19;;;;;;;13.45;3.30;;;5.20;99.90;;;;;;5084884;28;20414;-55
2022/01/31 06:37:45;;;;;;;11.10;3.30;;;5.00;99.90;;;;;;5089576;28;20856;-55
2022/01/31 06:40:11;;;;;;;10.85;3.35;;;4.90;99.90;;;;;;5091750;28;20835;-55
2022/01/31 06:42:37;;;;;;;10.95;3.00;;;4.80;99.90;;;;;;5090538;28;20382;-55
2022/01/31 06:45:06;;;;;;;7.90;2.60;;;4.80;99.90;;;;;;5092107;28;20763;-56
2022/01/31 06:47:32;;;;;;;7.87;2.60;;;4.60;99.90;;;;;;5091125;28;20725;-55
2022/01/31 06:49:59;;;;;;;8.63;2.60;;;4.50;99.90;;;;;;5091128;28;20401;-55
2022/01/31 06:52:26;;;;;;;8.82;2.70;;;4.50;99.90;;;;;;5091288;28;20374;-55
2022/01/31 06:54:54;;;;;;;13.98;3.08;;;4.50;99.90;;;;;;5087921;28;20687;-56
2022/01/31 06:57:22;;;;;;;14.73;3.45;;;4.40;99.90;;;;;;5087839;28;20382;-55
2022/01/31 06:59:48;;;;;;;8.88;2.60;;;4.50;99.90;;;;;;5091509;28;20390;-55
2022/01/31 07:02:14;;;;;;;10.25;3.58;;;4.40;99.90;;;;;;5090263;28;20386;-55
2022/01/31 07:04:40;;;;;;;7.40;2.50;;;4.50;99.90;;;;;;5084681;28;21358;-55
2022/01/31 07:07:05;;;;;;;12.93;2.97;;;4.70;99.90;;;;;;5091142;28;20386;-56
2022/01/31 07:09:34;;;;;;;9.43;2.50;;;6.20;99.90;;;;;;5091530;28;20432;-55
2022/01/31 07:12:02;;;;;;;9.15;2.90;;;4.50;99.90;;;;;;5090823;28;20723;-55
2022/01/31 07:14:30;;;;;;;7.07;2.72;;;4.50;99.90;;;;;;5091052;28;20440;-55
2022/01/31 07:17:04;;;;;;;9.48;3.47;;;4.40;99.90;;;;;;5091271;28;20410;-55
2022/01/31 07:19:33;;;;;;;9.00;2.80;;;4.40;99.90;;;;;;5090788;28;20393;-56
2022/01/31 07:21:59;;;;;;;8.52;2.50;;;4.30;99.90;;;;;;5091265;28;20836;-56
2022/01/31 07:26:52;;;;;;;7.65;2.70;;;4.30;99.90;;;;;;5091797;28;20689;-55
2022/01/31 07:29:19;;;;;;;13.00;2.90;;;4.30;99.90;;;;;;5090955;28;20382;-55
2022/01/31 07:31:46;;;;;;;11.45;3.47;;;5.30;99.90;;;;;;5091395;28;20465;-55
2022/01/31 07:34:14;;;;;;;8.70;2.70;;;4.40;99.90;;;;;;5090656;28;21026;-56
2022/01/31 07:36:40;;;;;;;11.63;3.00;;;4.60;99.90;;;;;;5091393;28;20394;-55
2022/01/31 07:39:06;;;;;;;7.07;2.90;;;4.20;99.90;;;;;;5090457;28;20439;-56
2022/01/31 07:41:32;;;;;;;9.67;2.87;;;4.20;99.90;;;;;;5089525;28;20400;-56
2022/01/31 07:43:58;;;;;;;7.10;2.70;;;4.30;99.90;;;;;;5082422;28;20483;-56
2022/01/31 07:46:24;;;;;;;8.88;2.65;;;4.30;99.90;;;;;;5070430;28;20396;-56
2022/01/31 07:48:50;;;;;;;9.23;3.33;;;4.40;99.90;;;;;;5071080;28;20459;-56
2022/01/31 07:51:17;;;;;;;5.82;2.30;;;4.40;99.90;;;;;;5070072;28;20428;-55
2022/01/31 07:53:43;;;;;;;7.63;1.98;;;4.40;99.90;;;;;;5070666;28;20492;-56
2022/01/31 07:56:10;;;;;;;5.20;1.90;;;4.40;99.90;;;;;;5070965;28;20407;-56
2022/01/31 07:58:37;;;;;;;6.20;1.08;;;4.80;99.90;;;;;;5079029;28;20382;-55
2022/01/31 08:01:04;;;;;;;5.65;1.60;;;5.00;99.90;;;;;;5084338;28;20438;-56
2022/01/31 08:03:33;;;;;;;4.20;1.15;;;4.30;99.90;;;;;;5083496;28;20390;-56
2022/01/31 08:05:59;;;;;;;5.18;1.40;;;4.40;99.90;;;;;;5090125;28;20401;-55
2022/01/31 08:08:28;;;;;;;4.20;1.10;;;6.00;99.90;;;;;;5075379;28;20668;-56
2022/01/31 08:10:57;;;;;;;3.35;0.77;;;4.70;99.90;;;;;;5087924;28;20402;-56
2022/01/31 08:13:25;;;;;;;5.50;0.60;;;4.60;99.90;;;;;;5080777;28;20422;-56
2022/01/31 08:16:09;;;;;;;3.10;0.60;;;4.50;99.90;;;;;;5089114;28;20466;-56
2022/01/31 08:18:40;;;;;;;3.30;0.80;;;4.50;99.90;;;;;;5089252;28;20784;-56
2022/01/31 08:21:10;;;;;;;4.00;0.80;;;4.50;99.90;;;;;;5090063;28;20374;-57
2022/01/31 08:23:36;;;;;;;4.90;0.90;;;4.50;99.90;;;;;;5088842;28;20804;-56
2022/01/31 08:26:04;;;;;;;3.10;0.55;;;4.50;99.90;;;;;;5080145;28;20396;-55
2022/01/31 08:28:38;;;;;;;3.83;0.90;;;4.50;99.90;;;;;;5080670;28;20398;-55
2022/01/31 08:31:13;;;;;;;3.33;0.70;;;5.70;99.90;;;;;;5090234;28;20382;-56
2022/01/31 08:34:02;;;;;;;5.72;1.00;;;4.50;99.90;;;;;;5090266;28;20402;-56
2022/01/31 08:36:26;;;;;;;4.03;1.13;;;4.60;99.90;;;;;;5088434;28;20465;-56
2022/01/31 08:38:53;;;;;;;4.72;1.00;;;4.60;99.90;;;;;;5088962;28;20390;-56
2022/01/31 08:41:19;;;;;;;3.95;1.10;;;4.90;99.90;;;;;;5089659;28;20400;-56
2022/01/31 08:43:45;;;;;;;4.70;1.48;;;4.50;99.90;;;;;;5089851;28;20456;-56
2022/01/31 08:46:13;;;;;;;4.70;1.25;;;4.50;99.90;;;;;;5087138;28;20401;-56
2022/01/31 08:48:40;;;;;;;5.03;1.30;;;4.60;99.90;;;;;;5089854;28;20415;-56
2022/01/31 08:51:08;;;;;;;4.80;1.33;;;4.80;99.90;;;;;;5078974;28;20396;-57
2022/01/31 08:53:34;;;;;;;4.60;1.70;;;4.70;99.90;;;;;;5095342;28;20452;-56
2022/01/31 08:56:07;;;;;;;4.65;1.63;;;4.70;99.90;;;;;;5086714;28;20808;-55
2022/01/31 08:58:33;;;;;;;4.18;1.40;;;4.70;99.90;;;;;;5083255;28;20386;-55
2022/01/31 09:01:04;;;;;;;6.20;1.30;;;4.80;99.90;;;;;;5089269;28;20377;-56
2022/01/31 09:06:01;;;;;;;6.70;1.90;;;4.80;99.90;;;;;;5089981;28;20461;-55
2022/01/31 09:08:26;;;;;;;6.78;1.58;;;4.90;99.90;;;;;;5089091;28;20371;-55
2022/01/31 09:10:52;;;;;;;5.60;1.80;;;5.80;99.90;;;;;;5089630;28;20370;-55
2022/01/31 09:13:18;;;;;;;5.03;1.30;;;6.10;99.90;;;;;;5088614;28;20394;-55
2022/01/31 09:15:44;;;;;;;7.00;1.20;;;5.90;99.90;;;;;;5089914;28;20386;-55
2022/01/31 09:18:10;;;;;;;4.10;1.37;;;5.60;99.90;;;;;;5088593;28;20432;-55
2022/01/31 09:20:36;;;;;;;4.82;1.40;;;5.60;99.90;;;;;;5089875;28;20381;-55
2022/01/31 09:23:03;;;;;;;5.10;1.30;;;5.50;99.90;;;;;;5089283;28;20385;-56
2022/01/31 09:25:29;;;;;;;4.82;1.50;;;5.60;99.90;;;;;;5089022;28;20518;-55
2022/01/31 09:27:56;;;;;;;6.10;1.40;;;5.50;99.90;;;;;;5088214;28;20755;-55
2022/01/31 09:30:22;;;;;;;4.38;1.20;;;5.60;99.90;;;;;;5090141;28;20446;-55
2022/01/31 09:32:49;;;;;;;5.88;1.27;;;6.70;99.90;;;;;;5074268;28;20449;-56
2022/01/31 09:35:14;;;;;;;5.00;1.20;;;6.20;99.90;;;;;;5087095;28;20934;-56
2022/01/31 09:37:40;;;;;;;4.60;1.10;;;6.50;99.90;;;;;;5088434;28;20466;-55
2022/01/31 09:40:07;;;;;;;4.55;1.13;;;6.40;99.90;;;;;;5088684;28;20846;-57
2022/01/31 09:42:58;;;;;;;5.53;1.30;;;6.20;99.90;;;;;;5089416;28;20378;-56
2022/01/31 09:45:36;;;;;;;6.05;1.25;;;6.00;99.90;;;;;;5088113;28;20402;-55
2022/01/31 09:50:28;;;;;;;4.87;1.50;;;5.70;99.90;;;;;;5088478;28;20378;-55
2022/01/31 09:52:55;;;;;;;7.28;1.63;;;5.60;99.90;;;;;;5089168;28;20843;-55
2022/01/31 09:55:22;;;;;;;6.75;1.50;;;5.60;99.90;;;;;;5088328;28;20430;-55
2022/01/31 09:57:48;;;;;;;5.70;1.50;;;5.50;99.90;;;;;;5089409;28;20378;-55
2022/01/31 10:00:14;;;;;;;4.77;1.53;;;5.50;99.90;;;;;;5089064;28;20516;-56
2022/01/31 10:02:41;;;;;;;5.28;1.50;;;5.40;99.90;;;;;;5089550;28;20424;-55
2022/01/31 10:05:07;;;;;;;5.32;1.52;;;5.30;99.90;;;;;;5088724;28;20389;-57
2022/01/31 10:07:46;;;;;;;6.03;1.60;;;5.40;99.90;;;;;;5089629;28;20377;-55
2022/01/31 10:10:24;;;;;;;5.45;1.90;;;5.40;99.90;;;;;;5088293;28;20377;-55
2022/01/31 10:18:06;;;;;;;9.50;2.00;;;5.50;99.90;;;;;;5068438;28;20489;-56
2022/01/31 10:20:34;;;;;;;4.10;1.30;;;5.50;99.90;;;;;;5068663;28;20383;-56
2022/01/31 10:23:06;;;;;;;6.75;2.50;;;5.40;99.90;;;;;;5068996;28;20383;-55
2022/01/31 10:25:33;;;;;;;7.10;1.77;;;5.40;99.90;;;;;;5068592;28;20391;-55
2022/01/31 10:27:58;;;;;;;5.35;1.95;;;6.70;99.90;;;;;;5068413;28;20382;-55
2022/01/31 10:30:29;;;;;;;7.40;1.60;;;5.50;99.90;;;;;;5068208;28;20368;-55
2022/01/31 10:32:58;;;;;;;6.55;2.75;;;6.40;99.90;;;;;;5068433;28;20761;-55
2022/01/31 10:35:28;;;;;;;5.60;1.37;;;5.50;99.90;;;;;;5067880;28;20953;-55
2022/01/31 10:38:08;;;;;;;4.97;1.60;;;5.40;99.90;;;;;;5068653;28;20375;-56
2022/01/31 10:54:36;;;;;;;7.60;1.50;;;5.60;99.90;;;;;;5071112;28;20411;-55
2022/01/31 10:57:14;;;;;;;5.00;1.80;;;5.60;99.90;;;;;;5072355;28;20402;-55
2022/01/31 10:59:42;;;;;;;4.30;1.20;;;5.60;99.90;;;;;;5071865;28;20387;-55
2022/01/31 11:02:19;;;;;;;6.70;1.73;;;5.60;99.90;;;;;;5071337;28;20836;-57
2022/01/31 11:04:45;;;;;;;8.00;1.80;;;5.60;99.90;;;;;;5070689;28;20793;-55
2022/01/31 11:07:15;;;;;;;6.00;1.63;;;5.60;99.90;;;;;;5070859;28;20793;-56
2022/01/31 11:09:42;;;;;;;5.50;1.48;;;5.70;99.90;;;;;;5071740;28;20837;-55
2022/01/31 11:12:09;;;;;;;4.93;1.50;;;5.70;99.90;;;;;;5071404;28;20372;-56
2022/01/31 11:14:41;;;;;;;7.90;1.90;;;5.80;99.90;;;;;;5085444;28;20401;-55
2022/01/31 11:17:11;;;;;;;8.00;1.70;;;5.90;99.90;;;;;;5091484;28;20407;-57
2022/01/31 11:19:39;;;;;;;5.43;1.50;;;5.90;99.90;;;;;;5091827;28;20473;-55
2022/01/31 11:22:11;;;;;;;5.90;1.80;;;5.90;99.90;;;;;;5092022;28;20386;-55
2022/01/31 11:24:49;;;;;;;7.32;1.40;;;6.00;99.90;;;;;;5091839;28;20377;-55
2022/01/31 11:27:25;;;;;;;8.83;1.70;;;6.00;99.90;;;;;;5090909;28;20386;-56
2022/01/31 11:29:55;;;;;;;6.53;1.50;;;5.90;99.90;;;;;;5091900;28;20474;-55
2022/01/31 11:32:25;;;;;;;4.63;1.10;;;6.00;99.90;;;;;;5090817;28;20388;-55
2022/01/31 11:34:52;;;;;;;4.90;1.10;;;5.80;99.90;;;;;;5091798;28;20410;-55
2022/01/31 11:37:20;;;;;;;8.40;1.30;;;5.70;99.90;;;;;;5091297;28;20383;-55
2022/01/31 11:39:52;;;;;;;4.25;1.58;;;5.60;99.90;;;;;;5091533;28;20401;-56
2022/01/31 11:42:20;;;;;;;4.60;1.13;;;5.70;99.90;;;;;;5090379;28;20370;-55
2022/01/31 11:45:11;;;;;;;5.45;1.30;;;5.50;99.90;;;;;;5090098;28;20709;-56
2022/01/31 11:47:38;;;;;;;4.20;1.05;;;6.00;99.90;;;;;;5091046;28;20744;-55
2022/01/31 11:50:12;;;;;;;4.10;0.98;;;5.30;99.90;;;;;;5090986;28;20439;-55
2022/01/31 11:52:44;;;;;;;3.80;1.20;;;5.30;99.90;;;;;;5091554;28;20847;-55
2022/01/31 11:55:13;;;;;;;4.05;0.90;;;6.20;99.90;;;;;;5090231;28;20448;-56
2022/01/31 11:57:39;;;;;;;3.92;1.00;;;5.40;99.90;;;;;;5090344;28;20378;-55
2022/01/31 12:00:13;;;;;;;5.03;1.10;;;5.30;99.90;;;;;;5089795;28;20386;-55
2022/01/31 12:02:45;;;;;;;5.00;0.90;;;5.40;99.90;;;;;;5091508;28;20386;-55
2022/01/31 12:05:16;;;;;;;4.45;1.30;;;5.40;99.90;;;;;;5089994;28;20874;-57
2022/01/31 12:07:43;;;;;;;4.55;1.30;;;5.50;99.90;;;;;;5091059;28;20877;-55
2022/01/31 12:10:31;;;;;;;4.97;1.30;;;5.50;99.90;;;;;;5089229;28;20377;-56
2022/01/31 12:13:03;;;;;;;7.13;1.30;;;5.50;99.90;;;;;;5090908;28;20381;-55
2022/01/31 12:23:38;;;;;;;5.05;0.90;;;5.60;99.90;;;;;;5090560;28;20421;-55
2022/01/31 12:26:35;;;;;;;7.40;1.10;;;6.00;99.90;;;;;;5090560;28;20452;-55
2022/01/31 12:29:10;;;;;;;5.97;1.40;;;5.60;99.90;;;;;;5090422;28;20788;-55
2022/01/31 12:31:54;;;;;;;4.67;1.00;;;5.50;99.90;;;;;;5090379;28;20502;-55
2022/01/31 12:34:21;;;;;;;4.35;1.23;;;5.40;99.90;;;;;;5089359;28;20801;-55
2022/01/31 12:36:50;;;;;;;5.75;1.38;;;5.50;99.90;;;;;;5090589;28;20788;-56
2022/01/31 12:39:32;;;;;;;6.70;1.57;;;6.10;99.90;;;;;;5089447;28;20418;-55
2022/01/31 12:42:15;;;;;;;6.80;1.50;;;5.40;99.90;;;;;;5090244;28;20415;-55
2022/01/31 12:44:42;;;;;;;5.90;1.30;;;5.30;99.90;;;;;;5090525;28;20382;-55
2022/01/31 12:47:19;;;;;;;4.30;0.90;;;5.20;99.90;;;;;;5089465;28;20995;-56
2022/01/31 12:50:06;;;;;;;6.03;1.10;;;5.10;99.90;;;;;;5090058;28;20374;-55
2022/01/31 12:52:36;;;;;;;9.50;1.30;;;5.20;99.90;;;;;;5089133;28;20871;-55
2022/01/31 12:55:11;;;;;;;7.25;1.20;;;5.20;99.90;;;;;;5090157;28;20489;-55
2022/01/31 12:57:52;;;;;;;5.87;1.20;;;5.20;99.90;;;;;;5090077;28;20383;-55
2022/01/31 13:00:40;;;;;;;8.07;1.33;;;5.10;99.90;;;;;;5088061;28;20409;-55
2022/01/31 13:03:07;;;;;;;6.03;1.40;;;6.00;99.90;;;;;;5089803;28;20870;-55
2022/01/31 13:05:35;;;;;;;6.53;1.20;;;5.00;99.90;;;;;;5089306;28;20472;-55
2022/01/31 13:08:01;;;;;;;5.15;1.50;;;5.10;99.90;;;;;;5090074;28;20863;-55
2022/01/31 13:10:40;;;;;;;4.93;1.30;;;5.10;99.90;;;;;;5088236;28;20413;-55
2022/01/31 13:13:06;;;;;;;7.57;1.27;;;6.30;99.90;;;;;;5089596;28;20390;-55
2022/01/31 13:15:31;;;;;;;6.60;1.30;;;5.00;99.90;;;;;;5089056;28;20421;-55
2022/01/31 13:18:08;;;;;;;4.40;1.13;;;5.00;99.90;;;;;;5089552;28;20587;-55
2022/01/31 13:20:35;;;;;;;5.85;1.50;;;4.90;99.90;;;;;;5089517;28;20378;-55
2022/01/31 13:23:03;;;;;;;4.43;1.23;;;4.90;99.90;;;;;;5089909;28;20418;-56
2022/01/31 13:25:29;;;;;;;3.87;1.07;;;5.00;99.90;;;;;;5088904;28;20473;-55
2022/01/31 13:27:55;;;;;;;7.50;1.20;;;6.90;99.90;;;;;;5089614;28;20378;-55
2022/01/31 13:30:27;;;;;;;4.93;1.38;;;4.90;99.90;;;;;;5088860;28;20383;-56
2022/01/31 13:32:53;;;;;;;5.32;1.30;;;5.00;99.90;;;;;;5089784;28;20374;-55
2022/01/31 13:35:21;;;;;;;7.80;1.73;;;6.40;99.90;;;;;;5088692;28;20402;-56
2022/01/31 13:38:02;;;;;;;4.68;1.30;;;7.00;99.90;;;;;;5089836;28;20464;-55